OISF  Fasa  Airport

Fasa, Iran

Add Bookmark
ICAO OISF
IATA FAZ
Type Airport
Status Operational
Latitude
28° 53' 30" N
28.891800
Longitude
53° 43' 23" E
53.723301
Local (DST + 5) UTC (GMT + 4)
May 3, 2015 02:18 May 3, 2015 09:48
Sunrise-Sunset Local UTC
Begin Civil Twilight 05:45 01:15
Sunrise 06:10 01:40
Sunset 07:33 15:03
End Civil Twilight 07:58 15:28
VFR
VFR
MVFR
MVFR
IFR
VFR
LIFR
VFR
Unknown
Unavailable

Current Weather

METAR Observed VFR
OISF 021250Z 19008KT CAVOK 32/M07 Q1013 Sat, May 2, 2015 @ 12:50 UTC
(20 Hours, 58 Minutes ago)
Visual Flight Rules
Wind Visibility Conditions
190° at 8 knots (15 kph) 10 km or more
  • No significant weather
Temperatures Readings Precipitation
Current Temp
32°C
90°F
Dewpoint
-7°C
19°F
Humidity 7%
Altimeter 29.91" Hg
Sea Level Pressure 1,013 mb
Field Elevation
1,383 m
4,537 ft
None Recorded
-
-

CheckWX.com is intended as a tool to help pilots better visualize weather data. It is not intended as a substitute for an official weather briefing obtained from a Flight Service Station. CheckWX.com does not meet the FAA requirements for an official pre-flight weather briefing. Therefore, it's important that pilots still call and obtain an official FSS pre-flight weather briefing.

© 2007-2015 CheckWX.com
09:48:28 UTC